Vandiver, Alabama
Current Conditions -  °F | °C
As of 10:53 AM on Thursday 23 Oct 2014 (Local Time) from KBHM Reporting Station
Scattered Clouds Scattered Clouds  
Wind Chill: 60°   Ceiling: Unl
Heat Index: 60°   Visibility: 10mi
Dew Point: 42°   Wind: 7mph
Humidity: 51%   Direction: 40°NE
Pressure: 30.18"   Gusts: NA
Location:  33.47°N, 86.51°W
Report Text: KBHM 231553Z 04006KT 10SM SCT250 16/06 A3018 RMK AO2 SLP219 T01560056
Loading
Personal Weather Stations






























Interactive Weather Map New forecast layout! Learn more

10-Day Weather Forecast

Advertisements
Track Severe Weather on mobile